This is the latest recevied weather packets stored in our database for station/object K0APR. If no packets are shown the sender has not sent any weather packets the latest 10 day(s).
| Time | Temp. | Humidity | Pressure | Rain* | Wind** | Luminosity | Snow |
|---|---|---|---|---|---|---|---|
| 1777932971 | 12.22° C | 42% | 1006 hPa | 0 mm | - | 196 W/m² | - |
| 1777932668 | 11.67° C | 42% | 1006.4 hPa | 0 mm | - | 345 W/m² | - |
| 1777932364 | 11.67° C | 42% | 1006 hPa | 0 mm | - | 137 W/m² | - |
| 1777932062 | 11.67° C | 41% | 1006 hPa | 0 mm | - | 299 W/m² | - |
| 1777931758 | 11.67° C | 41% | 1006 hPa | 0 mm | - | 136 W/m² | - |
| 1777931455 | 12.22° C | 43% | 1006 hPa | 0 mm | - | 127 W/m² | - |
| 1777931151 | 11.67° C | 43% | 1005.6 hPa | 0 mm | - | 124 W/m² | - |
| 1777930848 | 12.22° C | 44% | 1005.6 hPa | 0 mm | - | 114 W/m² | - |
| 1777930544 | 12.22° C | 44% | 1005.6 hPa | 0 mm | - | 201 W/m² | - |
| 1777930241 | 12.22° C | 44% | 1005.6 hPa | 0 mm | - | 203 W/m² | - |
| 1777929937 | 12.22° C | 44% | 1005.6 hPa | 0 mm | - | 219 W/m² | - |
| 1777929635 | 12.22° C | 44% | 1005.6 hPa | 0 mm | - | 196 W/m² | - |
| 1777929331 | 12.22° C | 44% | 1005.6 hPa | 0 mm | - | 207 W/m² | - |
| 1777929028 | 12.78° C | 44% | 1005.2 hPa | 0 mm | - | 198 W/m² | - |
| 1777928725 | 12.78° C | 44% | 1005.6 hPa | 0 mm | - | 191 W/m² | - |
| 1777928422 | 12.22° C | 44% | 1005.2 hPa | 0 mm | - | 258 W/m² | - |
| 1777928120 | 12.78° C | 44% | 1005.2 hPa | 0 mm | - | 297 W/m² | - |
| 1777927818 | 12.78° C | 44% | 1005.2 hPa | 0 mm | - | 338 W/m² | - |
| 1777927515 | 12.78° C | 42% | 1005.2 hPa | 0 mm | - | 359 W/m² | - |
| 1777927214 | 13.33° C | 43% | 1004.9 hPa | 0 mm | - | 397 W/m² | - |
| 1777926912 | 12.78° C | 42% | 1004.6 hPa | 0 mm | - | 578 W/m² | - |
| 1777926609 | 13.33° C | 44% | 1004.9 hPa | 0 mm | - | 373 W/m² | - |
| 1777926304 | 13.89° C | 42% | 1004.6 hPa | 0 mm | - | 325 W/m² | - |
| 1777926001 | 13.33° C | 43% | 1004.6 hPa | 0 mm | - | 647 W/m² | - |
| 1777925698 | 13.89° C | 42% | 1004.9 hPa | 0 mm | - | 257 W/m² | - |
* Rain latest hour (hover to see other rain measurements)
** Current wind speed in m/s (hover to see current wind gust speed)